Weather at Pope Field

Public forecast

Using degrees Fahrenheit for public forecast. Weather courtesy of forecast.io.

Current aviation weather report (METAR) for Pope Field

Retrieved 2020/10/28 12:16 UTC (1 hour ago):

KPOB 281216Z AUTO 00000KT 10SM OVC003 14/14 A3013 RMK AO2 SLP205

Aviation forecast (TAF) for Pope Field

Retrieved 2020/10/28 09:34 UTC (4 hours ago):

TAF KPOB 280900Z 2809/2915 VRB06KT 8000 BR SCT015 QNH3012INS BECMG 2816/2817 24006KT 9999 NSW SCT020 BKN060 BKN250 QNH3013INS BECMG 2907/2908 17006KT 9999 BKN015 510013 QNH2990INS BECMG 2909/2910 17006KT 9999 BKN008 WS020/20035KT QNH2985INS BECMG 2914/2915 18012G20KT 9999 BKN014 QNH2975INS TX25/2820Z TN12/2812Z